Terminal Aerodrome Forecast
Issued by NWS

Home | Current Version | Previous Version | Text Only | Print | Product List | Glossary On
Versions: 1 2 3 4 5 6 7 8 9 10 11 12 13
131
FTUS46 KSGX 270538
TAFTRM
TAF
KTRM 270538Z 2706/2806 32008KT P6SM SCT070 BKN100
     FM270700 VRB05KT P6SM SCT070 BKN100
     FM271600 14008KT P6SM SCT060 BKN090
     FM272300 VRB05KT P6SM VCSH SCT050 BKN080=

USA.gov is the U.S. government's official web portal to all federal, state and local government web resources and services.